This is the latest recevied weather packets stored in our database for station/object Aulendorf. If no packets are shown the sender has not sent any weather packets the latest 1 day(s).
| Time | Temp. | Humidity | Pressure | Rain* | Wind** | Luminosity | Snow |
|---|---|---|---|---|---|---|---|
| 1836273905 | 12.78° C | 92% | 1020.7 hPa | 0 mm | 1.34 m/s, 256° | - | - |
| 1778034731 | 10° C | 91% | 1006.5 hPa | 0 mm | 1.34 m/s, 236° | - | - |
| 1778032931 | 9.44° C | 91% | 1006.6 hPa | 0 mm | 0.89 m/s, 236° | - | - |
| 1778031131 | 10° C | 91% | 1006.8 hPa | 0 mm | 0.45 m/s, 236° | - | - |
| 1778029332 | 10° C | 91% | 1007.1 hPa | 0 mm | 1.34 m/s, 224° | - | - |
| 1778027529 | 10° C | 91% | 1007.1 hPa | 0 mm | 0 m/s | - | - |
| 1778025729 | 10° C | 91% | 1007.3 hPa | 0 mm | 0.45 m/s, 229° | - | - |
| 1778023929 | 10° C | 90% | 1007.6 hPa | 0 mm | 0.45 m/s, 229° | - | - |
| 1778022129 | 10° C | 90% | 1007.6 hPa | 0 mm | 1.34 m/s, 251° | - | - |
| 1778020330 | 10.56° C | 90% | 1007.9 hPa | 0 mm | 1.79 m/s, 232° | - | - |
| 1778018529 | 10.56° C | 90% | 1007.8 hPa | 0.51 mm | 0.89 m/s, 190° | - | - |
| 1778016731 | 10.56° C | 89% | 1007.8 hPa | 0.51 mm | 1.34 m/s, 232° | - | - |
| 1778014935 | 11.67° C | 88% | 1007.7 hPa | 0.51 mm | 1.79 m/s, 162° | - | - |
| 1778013129 | 11.67° C | 86% | 1007.7 hPa | 0.51 mm | 2.68 m/s, 216° | - | - |
| 1778011330 | 12.22° C | 84% | 1007.7 hPa | 0.51 mm | 1.79 m/s, 185° | - | - |
| 1778009529 | 12.78° C | 82% | 1007.6 hPa | 0.51 mm | 1.79 m/s, 252° | - | - |
| 1778007735 | 13.33° C | 79% | 1007.3 hPa | 0.51 mm | 2.68 m/s, 211° | - | - |
| 1778005932 | 15° C | 75% | 1006.4 hPa | 0.25 mm | 4.02 m/s, 194° | - | - |
| 1778004131 | 15.56° C | 68% | 1006.1 hPa | 0 mm | 3.58 m/s, 250° | - | - |
| 1778002330 | 16.67° C | 64% | 1005.8 hPa | 0 mm | 3.13 m/s, 182° | - | - |
| 1778000530 | 17.22° C | 64% | 1005.6 hPa | 0 mm | 1.79 m/s, 214° | - | - |
| 1777998731 | 18.33° C | 63% | 1005.4 hPa | 0 mm | 2.24 m/s, 226° | - | - |
| 1777995130 | 16.67° C | 70% | 1005.3 hPa | 0 mm | 0.89 m/s, 92° | - | - |
| 1777993336 | 17.22° C | 64% | 1005.6 hPa | 0 mm | 2.24 m/s, 251° | - | - |
| 1777991532 | 17.22° C | 61% | 1005.5 hPa | 0 mm | 2.24 m/s, 296° | - | - |
* Rain since midnight (hover to see other rain measurements)
** Current wind speed in m/s (hover to see current wind gust speed)